KLBF

North Platte Regional Lee Bird Field Airport

North Platte, Nebraska, USA
METAR KLBF 250053Z AUTO 14005KT 10SM CLR 27/19 A2992 RMK AO2 SLP106 T02720189
Observed Flight Rules
May-25 @ 00:53 UTC (25 minutes ago) Visual Flight Rules
Wind Visibility Clouds
140° at 5 knots 10 miles
  • Clear skies
Temperatures Readings
Current 27°C / 81°F
Dewpoint 19°C / 66°F
Humidity 62%
Altimeter 29.92" Hg
Pressure 1010.6 hPa
Elevation 847
METAR KLBF 250053Z AUTO 14005KT 10SM CLR 27/19 A2992 RMK AO2 SLP106 T02720189
Observed Flight Rules
May-25 @ 00:53 UTC
(25 minutes ago)
VFR
Wind Visibility
140° at 5 knots 10 miles
Clouds
  • Clear skies
Temperature Dewpoint
27°C / 81°F 19°C / 66°F
Humidity Altimeter Pressure
62% 29.92" Hg 1010.6 hPa